Bad Axe, Michigan
Current Conditions -  °F | °C
As of 12:39 PM on Saturday 25 Oct 2014 (Local Time) from KBAX Reporting Station
Scattered Clouds Scattered Clouds  
Wind Chill: 60°   Ceiling: Unl
Heat Index: 60°   Visibility: 10mi
Dew Point: 52°   Wind: 16mph
Humidity: 76%   Direction: 280°W
Pressure: 29.72"   Gusts: 25mph
Location:  43.8°N, 83°W
Report Text: KBAX 251639Z AUTO 28014G22KT 10SM SCT018 16/11 A2972 RMK AO2 T01560113
Loading
Personal Weather Stations






























Interactive Weather Map
Tropical Storm Tracking
New forecast layout! Learn more

10-Day Weather Forecast

Advertisements
Track Severe Weather on mobile